sensor_id;sensor_type;location;lat;lon;timestamp;P1;durP1;ratioP1;P2;durP2;ratioP2
5163;SDS011;2601;50.224;10.126;2023-11-19T00:02:08;160.23;;;13.40;;
5163;SDS011;2601;50.224;10.126;2023-11-19T00:04:36;159.83;;;12.00;;
5163;SDS011;2601;50.224;10.126;2023-11-19T00:07:04;160.17;;;12.27;;
5163;SDS011;2601;50.224;10.126;2023-11-19T00:09:31;160.23;;;12.27;;
5163;SDS011;2601;50.224;10.126;2023-11-19T00:11:57;160.77;;;13.50;;
5163;SDS011;2601;50.224;10.126;2023-11-19T00:14:25;160.20;;;12.53;;
5163;SDS011;2601;50.224;10.126;2023-11-19T00:16:51;160.57;;;12.20;;
5163;SDS011;2601;50.224;10.126;2023-11-19T00:19:16;160.97;;;12.40;;
5163;SDS011;2601;50.224;10.126;2023-11-19T00:21:42;160.47;;;12.13;;
5163;SDS011;2601;50.224;10.126;2023-11-19T00:24:08;162.10;;;13.83;;
5163;SDS011;2601;50.224;10.126;2023-11-19T00:26:34;160.20;;;12.67;;
5163;SDS011;2601;50.224;10.126;2023-11-19T00:29:00;160.10;;;12.27;;
5163;SDS011;2601;50.224;10.126;2023-11-19T00:31:26;162.07;;;12.50;;
5163;SDS011;2601;50.224;10.126;2023-11-19T00:33:52;159.20;;;11.87;;
5163;SDS011;2601;50.224;10.126;2023-11-19T00:36:18;159.87;;;11.97;;
5163;SDS011;2601;50.224;10.126;2023-11-19T00:38:44;159.87;;;12.37;;
5163;SDS011;2601;50.224;10.126;2023-11-19T00:41:10;158.90;;;11.60;;
5163;SDS011;2601;50.224;10.126;2023-11-19T00:43:35;160.17;;;13.00;;
5163;SDS011;2601;50.224;10.126;2023-11-19T00:46:01;160.47;;;12.70;;
5163;SDS011;2601;50.224;10.126;2023-11-19T00:48:28;159.53;;;12.63;;
5163;SDS011;2601;50.224;10.126;2023-11-19T00:50:53;159.00;;;12.13;;
5163;SDS011;2601;50.224;10.126;2023-11-19T00:53:19;159.97;;;12.33;;
5163;SDS011;2601;50.224;10.126;2023-11-19T00:55:44;159.10;;;12.03;;
5163;SDS011;2601;50.224;10.126;2023-11-19T00:58:10;160.63;;;13.53;;
5163;SDS011;2601;50.224;10.126;2023-11-19T01:00:36;160.03;;;12.20;;
5163;SDS011;2601;50.224;10.126;2023-11-19T01:03:01;158.97;;;11.30;;
5163;SDS011;2601;50.224;10.126;2023-11-19T01:05:27;159.47;;;12.10;;
5163;SDS011;2601;50.224;10.126;2023-11-19T01:07:53;160.83;;;13.10;;
5163;SDS011;2601;50.224;10.126;2023-11-19T01:10:19;159.37;;;12.57;;
5163;SDS011;2601;50.224;10.126;2023-11-19T01:12:45;159.67;;;12.57;;
5163;SDS011;2601;50.224;10.126;2023-11-19T01:15:11;159.50;;;12.23;;
5163;SDS011;2601;50.224;10.126;2023-11-19T01:17:38;158.97;;;11.50;;
5163;SDS011;2601;50.224;10.126;2023-11-19T01:20:03;160.20;;;11.83;;
5163;SDS011;2601;50.224;10.126;2023-11-19T01:22:31;159.23;;;12.13;;
5163;SDS011;2601;50.224;10.126;2023-11-19T01:24:57;159.57;;;11.70;;
5163;SDS011;2601;50.224;10.126;2023-11-19T01:27:23;159.57;;;11.93;;
5163;SDS011;2601;50.224;10.126;2023-11-19T01:29:49;158.67;;;11.50;;
5163;SDS011;2601;50.224;10.126;2023-11-19T01:32:15;160.17;;;12.83;;
5163;SDS011;2601;50.224;10.126;2023-11-19T01:34:41;158.57;;;11.60;;
5163;SDS011;2601;50.224;10.126;2023-11-19T01:37:06;159.67;;;13.30;;
5163;SDS011;2601;50.224;10.126;2023-11-19T01:39:34;159.33;;;12.07;;
5163;SDS011;2601;50.224;10.126;2023-11-19T01:42:00;160.47;;;13.00;;
5163;SDS011;2601;50.224;10.126;2023-11-19T01:44:25;158.43;;;11.53;;
5163;SDS011;2601;50.224;10.126;2023-11-19T01:46:51;158.97;;;12.13;;
5163;SDS011;2601;50.224;10.126;2023-11-19T01:49:17;159.07;;;11.73;;
5163;SDS011;2601;50.224;10.126;2023-11-19T01:51:44;158.87;;;11.50;;
5163;SDS011;2601;50.224;10.126;2023-11-19T01:54:11;159.27;;;12.30;;
5163;SDS011;2601;50.224;10.126;2023-11-19T01:56:38;159.33;;;11.47;;
5163;SDS011;2601;50.224;10.126;2023-11-19T01:59:05;158.63;;;11.70;;
5163;SDS011;2601;50.224;10.126;2023-11-19T02:01:32;160.17;;;13.20;;
5163;SDS011;2601;50.224;10.126;2023-11-19T02:04:02;159.60;;;13.13;;
5163;SDS011;2601;50.224;10.126;2023-11-19T02:06:29;157.97;;;11.00;;
5163;SDS011;2601;50.224;10.126;2023-11-19T02:08:57;160.30;;;13.90;;
5163;SDS011;2601;50.224;10.126;2023-11-19T02:11:22;159.10;;;12.03;;
5163;SDS011;2601;50.224;10.126;2023-11-19T02:13:49;159.30;;;12.40;;
5163;SDS011;2601;50.224;10.126;2023-11-19T02:16:14;159.57;;;12.47;;
5163;SDS011;2601;50.224;10.126;2023-11-19T02:18:40;159.90;;;13.07;;
5163;SDS011;2601;50.224;10.126;2023-11-19T02:21:05;159.10;;;12.20;;
5163;SDS011;2601;50.224;10.126;2023-11-19T02:23:31;159.17;;;12.10;;
5163;SDS011;2601;50.224;10.126;2023-11-19T02:26:01;159.27;;;12.43;;
5163;SDS011;2601;50.224;10.126;2023-11-19T02:28:35;158.20;;;11.93;;
5163;SDS011;2601;50.224;10.126;2023-11-19T02:31:02;159.80;;;12.10;;
5163;SDS011;2601;50.224;10.126;2023-11-19T02:33:29;160.10;;;12.73;;
5163;SDS011;2601;50.224;10.126;2023-11-19T02:35:55;158.77;;;11.73;;
5163;SDS011;2601;50.224;10.126;2023-11-19T02:38:21;159.20;;;11.87;;
5163;SDS011;2601;50.224;10.126;2023-11-19T02:40:47;159.63;;;13.40;;
5163;SDS011;2601;50.224;10.126;2023-11-19T02:43:13;159.33;;;12.40;;
5163;SDS011;2601;50.224;10.126;2023-11-19T02:45:38;159.63;;;12.50;;
5163;SDS011;2601;50.224;10.126;2023-11-19T02:48:04;159.27;;;11.97;;
5163;SDS011;2601;50.224;10.126;2023-11-19T02:50:31;158.93;;;11.70;;
5163;SDS011;2601;50.224;10.126;2023-11-19T02:52:57;159.80;;;12.37;;
5163;SDS011;2601;50.224;10.126;2023-11-19T02:55:23;159.93;;;12.60;;
5163;SDS011;2601;50.224;10.126;2023-11-19T02:57:49;159.77;;;12.30;;
5163;SDS011;2601;50.224;10.126;2023-11-19T03:00:21;160.40;;;11.60;;
5163;SDS011;2601;50.224;10.126;2023-11-19T03:02:57;160.10;;;13.20;;
5163;SDS011;2601;50.224;10.126;2023-11-19T03:05:35;159.50;;;12.30;;
5163;SDS011;2601;50.224;10.126;2023-11-19T03:08:00;159.57;;;12.80;;
5163;SDS011;2601;50.224;10.126;2023-11-19T03:10:26;159.07;;;12.00;;
5163;SDS011;2601;50.224;10.126;2023-11-19T03:12:52;159.77;;;11.73;;
5163;SDS011;2601;50.224;10.126;2023-11-19T03:15:17;158.70;;;11.63;;
5163;SDS011;2601;50.224;10.126;2023-11-19T03:17:43;159.50;;;12.03;;
5163;SDS011;2601;50.224;10.126;2023-11-19T03:20:10;158.73;;;11.93;;
5163;SDS011;2601;50.224;10.126;2023-11-19T03:22:42;159.97;;;12.40;;
5163;SDS011;2601;50.224;10.126;2023-11-19T03:25:09;158.47;;;10.67;;
5163;SDS011;2601;50.224;10.126;2023-11-19T03:27:38;159.17;;;11.90;;
5163;SDS011;2601;50.224;10.126;2023-11-19T03:30:07;158.23;;;11.10;;
5163;SDS011;2601;50.224;10.126;2023-11-19T03:32:34;159.17;;;12.20;;
5163;SDS011;2601;50.224;10.126;2023-11-19T03:35:00;160.67;;;12.33;;
5163;SDS011;2601;50.224;10.126;2023-11-19T03:37:29;159.57;;;12.43;;
5163;SDS011;2601;50.224;10.126;2023-11-19T03:39:56;159.63;;;13.17;;
5163;SDS011;2601;50.224;10.126;2023-11-19T03:42:24;159.87;;;12.10;;
5163;SDS011;2601;50.224;10.126;2023-11-19T03:44:53;158.57;;;11.33;;
5163;SDS011;2601;50.224;10.126;2023-11-19T03:47:19;158.93;;;11.37;;
5163;SDS011;2601;50.224;10.126;2023-11-19T03:49:48;158.63;;;11.57;;
5163;SDS011;2601;50.224;10.126;2023-11-19T03:52:14;158.57;;;11.60;;
5163;SDS011;2601;50.224;10.126;2023-11-19T03:54:40;158.67;;;11.70;;
5163;SDS011;2601;50.224;10.126;2023-11-19T03:57:05;158.87;;;11.40;;
5163;SDS011;2601;50.224;10.126;2023-11-19T03:59:31;159.57;;;12.70;;
5163;SDS011;2601;50.224;10.126;2023-11-19T04:01:58;159.10;;;11.47;;
5163;SDS011;2601;50.224;10.126;2023-11-19T04:04:26;158.80;;;11.30;;
5163;SDS011;2601;50.224;10.126;2023-11-19T04:06:53;158.57;;;11.60;;
5163;SDS011;2601;50.224;10.126;2023-11-19T04:09:19;158.23;;;11.67;;
5163;SDS011;2601;50.224;10.126;2023-11-19T04:11:44;159.17;;;12.07;;
5163;SDS011;2601;50.224;10.126;2023-11-19T04:14:12;158.00;;;11.70;;
5163;SDS011;2601;50.224;10.126;2023-11-19T04:16:38;158.83;;;11.70;;
5163;SDS011;2601;50.224;10.126;2023-11-19T04:19:04;159.57;;;12.47;;
5163;SDS011;2601;50.224;10.126;2023-11-19T04:21:29;159.47;;;11.97;;
5163;SDS011;2601;50.224;10.126;2023-11-19T04:23:55;159.47;;;12.87;;
5163;SDS011;2601;50.224;10.126;2023-11-19T04:26:21;159.57;;;12.50;;
5163;SDS011;2601;50.224;10.126;2023-11-19T04:28:47;160.90;;;13.40;;
5163;SDS011;2601;50.224;10.126;2023-11-19T04:31:14;159.00;;;11.97;;
5163;SDS011;2601;50.224;10.126;2023-11-19T04:33:41;158.83;;;11.63;;
5163;SDS011;2601;50.224;10.126;2023-11-19T04:36:07;159.67;;;12.27;;
5163;SDS011;2601;50.224;10.126;2023-11-19T04:38:33;159.73;;;12.60;;
5163;SDS011;2601;50.224;10.126;2023-11-19T04:40:59;159.40;;;11.80;;
5163;SDS011;2601;50.224;10.126;2023-11-19T04:43:25;159.00;;;11.77;;
5163;SDS011;2601;50.224;10.126;2023-11-19T04:45:50;159.30;;;11.77;;
5163;SDS011;2601;50.224;10.126;2023-11-19T04:48:16;158.57;;;11.70;;
5163;SDS011;2601;50.224;10.126;2023-11-19T04:50:41;159.10;;;12.20;;
5163;SDS011;2601;50.224;10.126;2023-11-19T04:53:07;159.83;;;12.40;;
5163;SDS011;2601;50.224;10.126;2023-11-19T04:55:32;159.13;;;11.63;;
5163;SDS011;2601;50.224;10.126;2023-11-19T04:57:58;164.07;;;11.53;;
5163;SDS011;2601;50.224;10.126;2023-11-19T05:00:24;159.93;;;12.00;;
5163;SDS011;2601;50.224;10.126;2023-11-19T05:02:49;160.10;;;12.63;;
5163;SDS011;2601;50.224;10.126;2023-11-19T05:05:15;158.40;;;11.63;;
5163;SDS011;2601;50.224;10.126;2023-11-19T05:07:41;158.17;;;11.17;;
5163;SDS011;2601;50.224;10.126;2023-11-19T05:10:07;161.20;;;13.03;;
5163;SDS011;2601;50.224;10.126;2023-11-19T05:12:33;160.10;;;13.30;;
5163;SDS011;2601;50.224;10.126;2023-11-19T05:14:59;158.37;;;12.03;;
5163;SDS011;2601;50.224;10.126;2023-11-19T05:17:25;159.97;;;11.90;;
5163;SDS011;2601;50.224;10.126;2023-11-19T05:19:51;160.00;;;12.30;;
5163;SDS011;2601;50.224;10.126;2023-11-19T05:22:17;159.00;;;12.77;;
5163;SDS011;2601;50.224;10.126;2023-11-19T05:24:42;158.73;;;11.80;;
5163;SDS011;2601;50.224;10.126;2023-11-19T05:27:08;158.70;;;12.23;;
5163;SDS011;2601;50.224;10.126;2023-11-19T05:29:36;158.77;;;11.50;;
5163;SDS011;2601;50.224;10.126;2023-11-19T05:32:04;159.10;;;12.57;;
5163;SDS011;2601;50.224;10.126;2023-11-19T05:34:30;159.20;;;12.20;;
5163;SDS011;2601;50.224;10.126;2023-11-19T05:36:56;160.23;;;13.03;;
5163;SDS011;2601;50.224;10.126;2023-11-19T05:39:22;160.67;;;13.33;;
5163;SDS011;2601;50.224;10.126;2023-11-19T05:41:47;160.00;;;12.53;;
5163;SDS011;2601;50.224;10.126;2023-11-19T05:44:13;159.97;;;13.73;;
5163;SDS011;2601;50.224;10.126;2023-11-19T05:46:39;158.87;;;12.30;;
5163;SDS011;2601;50.224;10.126;2023-11-19T05:49:07;159.87;;;12.60;;
5163;SDS011;2601;50.224;10.126;2023-11-19T05:51:36;159.07;;;11.47;;
5163;SDS011;2601;50.224;10.126;2023-11-19T05:54:06;158.63;;;12.47;;
5163;SDS011;2601;50.224;10.126;2023-11-19T05:56:32;159.00;;;11.73;;
5163;SDS011;2601;50.224;10.126;2023-11-19T05:58:58;158.63;;;11.87;;
5163;SDS011;2601;50.224;10.126;2023-11-19T06:01:31;159.17;;;11.70;;
5163;SDS011;2601;50.224;10.126;2023-11-19T06:03:59;159.37;;;12.20;;
5163;SDS011;2601;50.224;10.126;2023-11-19T06:06:26;158.87;;;11.80;;
5163;SDS011;2601;50.224;10.126;2023-11-19T06:08:52;158.87;;;12.30;;
5163;SDS011;2601;50.224;10.126;2023-11-19T06:11:17;159.77;;;12.93;;
5163;SDS011;2601;50.224;10.126;2023-11-19T06:13:45;159.53;;;11.77;;
5163;SDS011;2601;50.224;10.126;2023-11-19T06:16:11;158.50;;;11.37;;
5163;SDS011;2601;50.224;10.126;2023-11-19T06:18:37;164.37;;;11.50;;
5163;SDS011;2601;50.224;10.126;2023-11-19T06:21:03;158.97;;;12.50;;
5163;SDS011;2601;50.224;10.126;2023-11-19T06:23:28;159.33;;;12.37;;
5163;SDS011;2601;50.224;10.126;2023-11-19T06:25:54;158.57;;;11.20;;
5163;SDS011;2601;50.224;10.126;2023-11-19T06:28:19;161.47;;;11.50;;
5163;SDS011;2601;50.224;10.126;2023-11-19T06:30:45;160.13;;;12.73;;
5163;SDS011;2601;50.224;10.126;2023-11-19T06:33:14;159.17;;;11.90;;
5163;SDS011;2601;50.224;10.126;2023-11-19T06:35:39;158.70;;;11.30;;
5163;SDS011;2601;50.224;10.126;2023-11-19T06:38:05;159.07;;;11.50;;
5163;SDS011;2601;50.224;10.126;2023-11-19T06:40:31;159.53;;;11.23;;
5163;SDS011;2601;50.224;10.126;2023-11-19T06:42:57;158.60;;;10.97;;
5163;SDS011;2601;50.224;10.126;2023-11-19T06:45:23;159.57;;;12.80;;
5163;SDS011;2601;50.224;10.126;2023-11-19T06:47:48;159.20;;;11.90;;
5163;SDS011;2601;50.224;10.126;2023-11-19T06:50:15;158.20;;;10.43;;
5163;SDS011;2601;50.224;10.126;2023-11-19T06:52:40;160.30;;;11.13;;
5163;SDS011;2601;50.224;10.126;2023-11-19T06:55:06;159.00;;;12.07;;
5163;SDS011;2601;50.224;10.126;2023-11-19T06:57:32;159.17;;;11.50;;
5163;SDS011;2601;50.224;10.126;2023-11-19T06:59:58;157.77;;;10.93;;
5163;SDS011;2601;50.224;10.126;2023-11-19T07:02:24;158.60;;;11.27;;
5163;SDS011;2601;50.224;10.126;2023-11-19T07:04:50;157.97;;;10.90;;
5163;SDS011;2601;50.224;10.126;2023-11-19T07:07:16;158.80;;;11.50;;
5163;SDS011;2601;50.224;10.126;2023-11-19T07:09:41;158.50;;;11.70;;
5163;SDS011;2601;50.224;10.126;2023-11-19T07:12:07;158.33;;;11.90;;
5163;SDS011;2601;50.224;10.126;2023-11-19T07:14:33;160.60;;;12.23;;
5163;SDS011;2601;50.224;10.126;2023-11-19T07:16:59;159.07;;;11.27;;
5163;SDS011;2601;50.224;10.126;2023-11-19T07:19:25;158.30;;;11.90;;
5163;SDS011;2601;50.224;10.126;2023-11-19T07:21:51;157.97;;;10.90;;
5163;SDS011;2601;50.224;10.126;2023-11-19T07:24:19;160.77;;;11.20;;
5163;SDS011;2601;50.224;10.126;2023-11-19T07:26:46;159.70;;;12.10;;
5163;SDS011;2601;50.224;10.126;2023-11-19T07:29:15;158.57;;;11.43;;
5163;SDS011;2601;50.224;10.126;2023-11-19T07:31:43;158.77;;;11.93;;
5163;SDS011;2601;50.224;10.126;2023-11-19T07:34:10;158.43;;;11.10;;
5163;SDS011;2601;50.224;10.126;2023-11-19T07:36:36;159.67;;;12.13;;
5163;SDS011;2601;50.224;10.126;2023-11-19T07:39:03;159.40;;;12.30;;
5163;SDS011;2601;50.224;10.126;2023-11-19T07:41:29;159.40;;;12.20;;
5163;SDS011;2601;50.224;10.126;2023-11-19T07:43:56;158.60;;;11.63;;
5163;SDS011;2601;50.224;10.126;2023-11-19T07:46:21;160.27;;;11.27;;
5163;SDS011;2601;50.224;10.126;2023-11-19T07:48:47;159.30;;;11.07;;
5163;SDS011;2601;50.224;10.126;2023-11-19T07:51:13;158.63;;;11.40;;
5163;SDS011;2601;50.224;10.126;2023-11-19T07:53:41;157.57;;;11.17;;
5163;SDS011;2601;50.224;10.126;2023-11-19T07:56:07;159.40;;;11.80;;
5163;SDS011;2601;50.224;10.126;2023-11-19T07:58:33;158.57;;;12.17;;
5163;SDS011;2601;50.224;10.126;2023-11-19T08:00:59;158.37;;;10.80;;
5163;SDS011;2601;50.224;10.126;2023-11-19T08:03:26;158.60;;;12.07;;
5163;SDS011;2601;50.224;10.126;2023-11-19T08:05:54;157.87;;;10.80;;
5163;SDS011;2601;50.224;10.126;2023-11-19T08:08:21;158.77;;;12.07;;
5163;SDS011;2601;50.224;10.126;2023-11-19T08:10:47;160.17;;;11.23;;
5163;SDS011;2601;50.224;10.126;2023-11-19T08:13:14;159.00;;;11.20;;
5163;SDS011;2601;50.224;10.126;2023-11-19T08:15:39;159.13;;;12.00;;
5163;SDS011;2601;50.224;10.126;2023-11-19T08:18:05;158.00;;;10.97;;
5163;SDS011;2601;50.224;10.126;2023-11-19T08:20:32;158.67;;;11.67;;
5163;SDS011;2601;50.224;10.126;2023-11-19T08:22:58;156.83;;;10.37;;
5163;SDS011;2601;50.224;10.126;2023-11-19T08:25:23;158.17;;;11.40;;
5163;SDS011;2601;50.224;10.126;2023-11-19T08:27:49;158.37;;;11.37;;
5163;SDS011;2601;50.224;10.126;2023-11-19T08:30:14;158.23;;;11.00;;
5163;SDS011;2601;50.224;10.126;2023-11-19T08:32:40;161.67;;;13.17;;
5163;SDS011;2601;50.224;10.126;2023-11-19T08:35:05;159.63;;;11.50;;
5163;SDS011;2601;50.224;10.126;2023-11-19T08:37:31;159.40;;;11.30;;
5163;SDS011;2601;50.224;10.126;2023-11-19T08:39:57;160.50;;;11.30;;
5163;SDS011;2601;50.224;10.126;2023-11-19T08:42:22;159.50;;;12.27;;
5163;SDS011;2601;50.224;10.126;2023-11-19T08:44:48;162.90;;;12.07;;
5163;SDS011;2601;50.224;10.126;2023-11-19T08:47:15;159.30;;;11.70;;
5163;SDS011;2601;50.224;10.126;2023-11-19T08:49:43;159.87;;;12.50;;
5163;SDS011;2601;50.224;10.126;2023-11-19T08:52:08;159.97;;;11.53;;
5163;SDS011;2601;50.224;10.126;2023-11-19T08:54:35;161.57;;;11.47;;
5163;SDS011;2601;50.224;10.126;2023-11-19T08:57:01;160.57;;;11.17;;
5163;SDS011;2601;50.224;10.126;2023-11-19T08:59:28;169.00;;;12.60;;
5163;SDS011;2601;50.224;10.126;2023-11-19T09:01:54;177.30;;;13.37;;
5163;SDS011;2601;50.224;10.126;2023-11-19T09:04:19;159.90;;;11.50;;
5163;SDS011;2601;50.224;10.126;2023-11-19T09:06:47;168.50;;;12.20;;
5163;SDS011;2601;50.224;10.126;2023-11-19T09:09:13;171.00;;;12.27;;
5163;SDS011;2601;50.224;10.126;2023-11-19T09:11:39;162.47;;;11.93;;
5163;SDS011;2601;50.224;10.126;2023-11-19T09:14:04;176.70;;;12.40;;
5163;SDS011;2601;50.224;10.126;2023-11-19T09:16:30;166.97;;;11.57;;
5163;SDS011;2601;50.224;10.126;2023-11-19T09:18:55;161.77;;;10.97;;
5163;SDS011;2601;50.224;10.126;2023-11-19T09:21:22;166.07;;;11.93;;
5163;SDS011;2601;50.224;10.126;2023-11-19T09:23:48;173.03;;;11.20;;
5163;SDS011;2601;50.224;10.126;2023-11-19T09:26:14;163.67;;;11.77;;
5163;SDS011;2601;50.224;10.126;2023-11-19T09:28:40;161.17;;;11.43;;
5163;SDS011;2601;50.224;10.126;2023-11-19T09:31:15;164.10;;;11.47;;
5163;SDS011;2601;50.224;10.126;2023-11-19T09:33:41;158.40;;;11.07;;
5163;SDS011;2601;50.224;10.126;2023-11-19T09:36:07;160.60;;;11.47;;
5163;SDS011;2601;50.224;10.126;2023-11-19T09:38:33;161.30;;;11.13;;
5163;SDS011;2601;50.224;10.126;2023-11-19T09:41:03;162.37;;;11.57;;
5163;SDS011;2601;50.224;10.126;2023-11-19T09:43:33;159.13;;;11.30;;
5163;SDS011;2601;50.224;10.126;2023-11-19T09:45:59;159.40;;;11.10;;
5163;SDS011;2601;50.224;10.126;2023-11-19T09:48:32;160.73;;;11.63;;
5163;SDS011;2601;50.224;10.126;2023-11-19T09:51:00;164.20;;;12.00;;
5163;SDS011;2601;50.224;10.126;2023-11-19T09:53:26;161.90;;;11.07;;
5163;SDS011;2601;50.224;10.126;2023-11-19T09:55:52;159.80;;;12.73;;
5163;SDS011;2601;50.224;10.126;2023-11-19T09:58:18;161.50;;;11.40;;
5163;SDS011;2601;50.224;10.126;2023-11-19T10:00:44;158.97;;;10.77;;
5163;SDS011;2601;50.224;10.126;2023-11-19T10:03:10;170.20;;;11.43;;
5163;SDS011;2601;50.224;10.126;2023-11-19T10:05:37;161.00;;;12.57;;
5163;SDS011;2601;50.224;10.126;2023-11-19T10:08:04;160.57;;;11.80;;
5163;SDS011;2601;50.224;10.126;2023-11-19T10:10:30;160.00;;;10.90;;
5163;SDS011;2601;50.224;10.126;2023-11-19T10:12:55;164.07;;;11.63;;
5163;SDS011;2601;50.224;10.126;2023-11-19T10:15:22;163.57;;;11.60;;
5163;SDS011;2601;50.224;10.126;2023-11-19T10:17:50;161.67;;;12.30;;
5163;SDS011;2601;50.224;10.126;2023-11-19T10:20:16;161.17;;;12.67;;
5163;SDS011;2601;50.224;10.126;2023-11-19T10:22:42;168.57;;;11.10;;
5163;SDS011;2601;50.224;10.126;2023-11-19T10:25:21;167.40;;;11.47;;
5163;SDS011;2601;50.224;10.126;2023-11-19T10:27:51;162.57;;;11.80;;
5163;SDS011;2601;50.224;10.126;2023-11-19T10:30:18;161.20;;;12.90;;
5163;SDS011;2601;50.224;10.126;2023-11-19T10:32:45;160.20;;;11.47;;
5163;SDS011;2601;50.224;10.126;2023-11-19T10:35:11;159.90;;;11.13;;
5163;SDS011;2601;50.224;10.126;2023-11-19T10:37:38;165.17;;;11.17;;
5163;SDS011;2601;50.224;10.126;2023-11-19T10:40:04;166.37;;;11.03;;
5163;SDS011;2601;50.224;10.126;2023-11-19T10:42:30;160.27;;;12.40;;
5163;SDS011;2601;50.224;10.126;2023-11-19T10:44:56;165.77;;;11.80;;
5163;SDS011;2601;50.224;10.126;2023-11-19T10:47:22;165.90;;;11.97;;
5163;SDS011;2601;50.224;10.126;2023-11-19T10:49:48;159.07;;;11.23;;
5163;SDS011;2601;50.224;10.126;2023-11-19T10:52:17;162.97;;;12.27;;
5163;SDS011;2601;50.224;10.126;2023-11-19T10:54:48;159.17;;;11.17;;
5163;SDS011;2601;50.224;10.126;2023-11-19T10:57:16;161.00;;;12.60;;
5163;SDS011;2601;50.224;10.126;2023-11-19T10:59:46;165.27;;;11.73;;
5163;SDS011;2601;50.224;10.126;2023-11-19T11:02:15;161.17;;;13.27;;
5163;SDS011;2601;50.224;10.126;2023-11-19T11:04:44;161.37;;;11.67;;
5163;SDS011;2601;50.224;10.126;2023-11-19T11:07:12;160.00;;;11.70;;
5163;SDS011;2601;50.224;10.126;2023-11-19T11:09:42;162.17;;;12.27;;
5163;SDS011;2601;50.224;10.126;2023-11-19T11:12:11;158.57;;;11.60;;
5163;SDS011;2601;50.224;10.126;2023-11-19T11:14:38;164.00;;;12.00;;
5163;SDS011;2601;50.224;10.126;2023-11-19T11:17:05;162.57;;;12.10;;
5163;SDS011;2601;50.224;10.126;2023-11-19T11:19:33;161.57;;;11.80;;
5163;SDS011;2601;50.224;10.126;2023-11-19T11:21:59;163.83;;;12.37;;
5163;SDS011;2601;50.224;10.126;2023-11-19T11:27:30;162.93;;;13.80;;
5163;SDS011;2601;50.224;10.126;2023-11-19T11:30:15;162.77;;;12.13;;
5163;SDS011;2601;50.224;10.126;2023-11-19T11:33:06;165.40;;;12.73;;
5163;SDS011;2601;50.224;10.126;2023-11-19T11:38:26;163.30;;;11.70;;
5163;SDS011;2601;50.224;10.126;2023-11-19T11:43:44;161.57;;;11.13;;
5163;SDS011;2601;50.224;10.126;2023-11-19T11:49:05;165.27;;;12.00;;
5163;SDS011;2601;50.224;10.126;2023-11-19T12:02:11;163.07;;;11.80;;
5163;SDS011;2601;50.224;10.126;2023-11-19T12:04:39;164.13;;;11.73;;
5163;SDS011;2601;50.224;10.126;2023-11-19T12:07:06;167.27;;;11.80;;
5163;SDS011;2601;50.224;10.126;2023-11-19T12:09:42;167.00;;;11.20;;
5163;SDS011;2601;50.224;10.126;2023-11-19T12:12:19;165.00;;;11.17;;
5163;SDS011;2601;50.224;10.126;2023-11-19T12:15:04;160.90;;;10.83;;
5163;SDS011;2601;50.224;10.126;2023-11-19T12:20:16;159.97;;;11.07;;
5163;SDS011;2601;50.224;10.126;2023-11-19T12:22:44;163.57;;;11.57;;
5163;SDS011;2601;50.224;10.126;2023-11-19T12:25:11;160.87;;;10.70;;
5163;SDS011;2601;50.224;10.126;2023-11-19T12:27:44;165.70;;;11.80;;
5163;SDS011;2601;50.224;10.126;2023-11-19T12:30:23;168.17;;;11.40;;
5163;SDS011;2601;50.224;10.126;2023-11-19T12:32:49;161.13;;;11.13;;
5163;SDS011;2601;50.224;10.126;2023-11-19T12:35:15;168.37;;;12.23;;
5163;SDS011;2601;50.224;10.126;2023-11-19T12:37:44;162.40;;;11.97;;
5163;SDS011;2601;50.224;10.126;2023-11-19T12:42:48;162.87;;;11.77;;
5163;SDS011;2601;50.224;10.126;2023-11-19T12:45:14;162.20;;;12.07;;
5163;SDS011;2601;50.224;10.126;2023-11-19T12:47:42;164.40;;;11.63;;
5163;SDS011;2601;50.224;10.126;2023-11-19T12:50:14;162.87;;;11.07;;
5163;SDS011;2601;50.224;10.126;2023-11-19T12:52:43;166.17;;;10.97;;
5163;SDS011;2601;50.224;10.126;2023-11-19T12:55:28;162.27;;;10.80;;
5163;SDS011;2601;50.224;10.126;2023-11-19T12:57:55;163.80;;;11.63;;
5163;SDS011;2601;50.224;10.126;2023-11-19T13:00:22;163.37;;;11.63;;
5163;SDS011;2601;50.224;10.126;2023-11-19T13:02:49;164.63;;;11.70;;
5163;SDS011;2601;50.224;10.126;2023-11-19T13:10:28;162.53;;;11.90;;
5163;SDS011;2601;50.224;10.126;2023-11-19T13:15:30;161.07;;;11.33;;
5163;SDS011;2601;50.224;10.126;2023-11-19T13:17:57;166.17;;;11.90;;
5163;SDS011;2601;50.224;10.126;2023-11-19T13:20:22;160.70;;;11.27;;
5163;SDS011;2601;50.224;10.126;2023-11-19T13:22:57;160.77;;;11.07;;
5163;SDS011;2601;50.224;10.126;2023-11-19T13:25:27;164.30;;;11.80;;
5163;SDS011;2601;50.224;10.126;2023-11-19T13:27:54;160.40;;;10.77;;
5163;SDS011;2601;50.224;10.126;2023-11-19T13:30:20;160.47;;;10.90;;
5163;SDS011;2601;50.224;10.126;2023-11-19T13:32:47;162.47;;;11.07;;
5163;SDS011;2601;50.224;10.126;2023-11-19T13:35:13;161.57;;;11.00;;
5163;SDS011;2601;50.224;10.126;2023-11-19T13:37:39;163.23;;;11.30;;
5163;SDS011;2601;50.224;10.126;2023-11-19T13:40:06;159.97;;;10.60;;
5163;SDS011;2601;50.224;10.126;2023-11-19T13:42:32;163.47;;;11.27;;
5163;SDS011;2601;50.224;10.126;2023-11-19T13:44:58;160.93;;;10.37;;
5163;SDS011;2601;50.224;10.126;2023-11-19T13:47:23;162.20;;;10.30;;
5163;SDS011;2601;50.224;10.126;2023-11-19T13:49:49;160.27;;;11.80;;
5163;SDS011;2601;50.224;10.126;2023-11-19T13:52:15;163.27;;;11.20;;
5163;SDS011;2601;50.224;10.126;2023-11-19T13:54:40;178.00;;;11.83;;
5163;SDS011;2601;50.224;10.126;2023-11-19T13:57:06;162.17;;;10.70;;
5163;SDS011;2601;50.224;10.126;2023-11-19T13:59:31;164.50;;;11.23;;
5163;SDS011;2601;50.224;10.126;2023-11-19T14:01:57;162.30;;;11.30;;
5163;SDS011;2601;50.224;10.126;2023-11-19T14:04:23;160.57;;;10.97;;
5163;SDS011;2601;50.224;10.126;2023-11-19T14:06:49;160.27;;;11.43;;
5163;SDS011;2601;50.224;10.126;2023-11-19T14:09:14;162.07;;;11.90;;
5163;SDS011;2601;50.224;10.126;2023-11-19T14:11:40;164.17;;;11.80;;
5163;SDS011;2601;50.224;10.126;2023-11-19T14:14:07;164.87;;;13.70;;
5163;SDS011;2601;50.224;10.126;2023-11-19T14:16:33;168.07;;;13.60;;
5163;SDS011;2601;50.224;10.126;2023-11-19T14:18:59;163.10;;;11.70;;
5163;SDS011;2601;50.224;10.126;2023-11-19T14:21:25;162.80;;;12.37;;
5163;SDS011;2601;50.224;10.126;2023-11-19T14:23:51;163.97;;;12.03;;
5163;SDS011;2601;50.224;10.126;2023-11-19T14:26:17;168.10;;;12.83;;
5163;SDS011;2601;50.224;10.126;2023-11-19T14:28:43;162.90;;;12.67;;
5163;SDS011;2601;50.224;10.126;2023-11-19T14:31:08;171.90;;;16.63;;
5163;SDS011;2601;50.224;10.126;2023-11-19T14:33:34;192.70;;;29.30;;
5163;SDS011;2601;50.224;10.126;2023-11-19T14:36:01;192.23;;;30.63;;
5163;SDS011;2601;50.224;10.126;2023-11-19T14:38:26;184.83;;;24.90;;
5163;SDS011;2601;50.224;10.126;2023-11-19T14:40:52;183.43;;;19.50;;
5163;SDS011;2601;50.224;10.126;2023-11-19T14:43:18;172.53;;;17.20;;
5163;SDS011;2601;50.224;10.126;2023-11-19T14:45:43;175.90;;;17.47;;
5163;SDS011;2601;50.224;10.126;2023-11-19T14:48:09;175.87;;;16.00;;
5163;SDS011;2601;50.224;10.126;2023-11-19T14:50:35;167.97;;;16.00;;
5163;SDS011;2601;50.224;10.126;2023-11-19T14:53:01;171.27;;;16.00;;
5163;SDS011;2601;50.224;10.126;2023-11-19T14:55:27;166.80;;;14.27;;